Terminal Aerodrome Forecast
Issued by NWS Boston, MA

Home | Current Version | Previous Version | Text Only | Print | Product List | Glossary On
Versions: 1 2 3 4 5 6 7 8 9 10 11 12 13 14 15 16 17 18 19 20
000
FTUS41 KBOX 271333 AAA
TAFORH
TAF AMD
KORH 271333Z 2714/2812 31008KT P6SM BKN022
     FM271600 33005KT P6SM SCT025 BKN035
      TEMPO 2716/2718 BKN025
     FM272000 VRB03KT P6SM BKN040
     FM280500 12005KT P6SM -DZ BKN010
     FM281000 VRB03KT P6SM BKN003=

USA.gov is the U.S. government's official web portal to all federal, state and local government web resources and services.